PWSweather.com
Personal Weather Stations
Station Observations
BREAKEY01
Lévis, Breakeyville, QC G6z 7G7

LévisBreakeyville, QC G6z 7G7

Lat: 46.681, Lon: -71.224

Elevation: 328

Station Type: Davis Vantage Pro2

http://www.meteobreakey.com

Latest ConditionsUpdated 11:52:02 AM EST Monday, Jan 23, 2017
Currently Today's Max Today's Min Today's Average
Temperature 25.5°F-3.6°C 26.1°F-3.3°C 25.2°F-3.8°C 25.7°F-3.5°C
Dew Point 19.9°F-6.7°C 21.2°F-6.0°C 19.4°F-7.0°C 20.4°F-6.4°C
Winds 13.0 mph NE20.9 kmh NE 13.0 mph NE20.9 kmh NE - 7.4 mph 11.9 kmh
Wind Gusts 8.9 mph14.3 kmh 15.0 mph24.1 kmh - -
Humidity 79% 82% 78% 80%
Pressure 30.19 in1022.4 mb 30.23 in1023.7 mb 30.16 in1021.3 mb -
Hour Temp Dew Point Humidity Winds Wind Gusts Pressure Precip Precip Rate Daily Precip Total
11:52 AM 25.5°F-3.6°C 19.9°F-6.7°C 79% 13.0 mph NE20.9 kmh NE 8.9 mph14.3 kmh 30.19 in1022.4 mb - 0.00 in0.0 mm 0.00 in0.0 mm
11:47 AM 25.5°F-3.6°C 19.9°F-6.7°C 79% 12.1 mph ENE19.5 kmh ENE 14.1 mph22.7 kmh 30.19 in1022.4 mb - 0.00 in0.0 mm 0.00 in0.0 mm
11:42 AM 25.7°F-3.5°C 20.1°F-6.6°C 79% 11.0 mph NNE17.7 kmh NNE 11.0 mph17.7 kmh 30.19 in1022.4 mb - 0.00 in0.0 mm 0.00 in0.0 mm
11:37 AM 25.7°F-3.5°C 20.1°F-6.6°C 79% 11.0 mph NE17.7 kmh NE 11.0 mph17.7 kmh 30.20 in1022.7 mb - 0.00 in0.0 mm 0.00 in0.0 mm
11:32 AM 25.7°F-3.5°C 20.1°F-6.6°C 79% 8.9 mph E14.3 kmh E 12.1 mph19.5 kmh 30.20 in1022.7 mb - 0.00 in0.0 mm 0.00 in0.0 mm
11:27 AM 25.5°F-3.6°C 20.3°F-6.5°C 80% 8.1 mph ENE13.0 kmh ENE 6.0 mph9.7 kmh 30.20 in1022.7 mb - 0.00 in0.0 mm 0.00 in0.0 mm
11:22 AM 25.3°F-3.7°C 20.1°F-6.6°C 80% 8.9 mph NE14.3 kmh NE 6.9 mph11.1 kmh 30.21 in1023.0 mb - 0.00 in0.0 mm 0.00 in0.0 mm
11:17 AM 25.2°F-3.8°C 19.9°F-6.7°C 80% 10.1 mph ENE16.3 kmh ENE 6.0 mph9.7 kmh 30.21 in1023.0 mb - 0.00 in0.0 mm 0.00 in0.0 mm
11:12 AM 25.2°F-3.8°C 19.6°F-6.9°C 79% 11.0 mph ENE17.7 kmh ENE 10.1 mph16.3 kmh 30.22 in1023.4 mb - 0.00 in0.0 mm 0.00 in0.0 mm
11:07 AM 25.3°F-3.7°C 19.8°F-6.8°C 79% 8.9 mph NE14.3 kmh NE 11.0 mph17.7 kmh 30.22 in1023.4 mb - 0.00 in0.0 mm 0.00 in0.0 mm
11:02 AM 25.3°F-3.7°C 19.8°F-6.8°C 79% 8.9 mph E14.3 kmh E 6.9 mph11.1 kmh 30.22 in1023.4 mb - 0.00 in0.0 mm 0.00 in0.0 mm
10:57 AM 25.3°F-3.7°C 19.8°F-6.8°C 79% 10.1 mph E16.3 kmh E 6.9 mph11.1 kmh 30.22 in1023.4 mb - 0.00 in0.0 mm 0.00 in0.0 mm
10:52 AM 25.3°F-3.7°C 19.8°F-6.8°C 79% 10.1 mph E16.3 kmh E 8.9 mph14.3 kmh 30.22 in1023.4 mb - 0.00 in0.0 mm 0.00 in0.0 mm
10:47 AM 25.5°F-3.6°C 19.9°F-6.7°C 79% 8.9 mph ENE14.3 kmh ENE 8.1 mph13.0 kmh 30.21 in1023.0 mb - 0.00 in0.0 mm 0.00 in0.0 mm
10:42 AM 25.9°F-3.4°C 19.9°F-6.7°C 78% 8.1 mph E13.0 kmh E 10.1 mph16.3 kmh 30.23 in1023.7 mb - 0.00 in0.0 mm 0.00 in0.0 mm
10:37 AM 26.1°F-3.3°C 20.1°F-6.6°C 78% 6.9 mph E11.1 kmh E 8.1 mph13.0 kmh 30.22 in1023.4 mb - 0.00 in0.0 mm 0.00 in0.0 mm
10:32 AM 26.1°F-3.3°C 20.1°F-6.6°C 78% 6.9 mph ENE11.1 kmh ENE 8.9 mph14.3 kmh 30.22 in1023.4 mb - 0.00 in0.0 mm 0.00 in0.0 mm
10:27 AM 26.1°F-3.3°C 20.1°F-6.6°C 78% 6.9 mph ENE11.1 kmh ENE 10.1 mph16.3 kmh 30.21 in1023.0 mb - 0.00 in0.0 mm 0.00 in0.0 mm
10:22 AM 25.9°F-3.4°C 20.3°F-6.5°C 79% 6.9 mph E11.1 kmh E 6.0 mph9.7 kmh 30.21 in1023.0 mb - 0.00 in0.0 mm 0.00 in0.0 mm
10:17 AM 25.5°F-3.6°C 19.9°F-6.7°C 79% 8.9 mph ENE14.3 kmh ENE 8.9 mph14.3 kmh 30.20 in1022.7 mb - 0.00 in0.0 mm 0.00 in0.0 mm
10:12 AM 25.5°F-3.6°C 19.9°F-6.7°C 79% 8.9 mph E14.3 kmh E 4.9 mph7.9 kmh 30.20 in1022.7 mb - 0.00 in0.0 mm 0.00 in0.0 mm
10:07 AM 25.5°F-3.6°C 19.9°F-6.7°C 79% 8.9 mph E14.3 kmh E 8.9 mph14.3 kmh 30.21 in1023.0 mb - 0.00 in0.0 mm 0.00 in0.0 mm
10:02 AM 25.5°F-3.6°C 19.6°F-6.9°C 78% 8.9 mph E14.3 kmh E 12.1 mph19.5 kmh 30.19 in1022.4 mb - 0.00 in0.0 mm 0.00 in0.0 mm
09:57 AM 25.5°F-3.6°C 19.9°F-6.7°C 79% 8.1 mph E13.0 kmh E 8.9 mph14.3 kmh 30.20 in1022.7 mb - 0.00 in0.0 mm 0.00 in0.0 mm
09:52 AM 25.3°F-3.7°C 19.8°F-6.8°C 79% 10.1 mph E16.3 kmh E 6.9 mph11.1 kmh 30.19 in1022.4 mb - 0.00 in0.0 mm 0.00 in0.0 mm
09:47 AM 25.3°F-3.7°C 19.4°F-7.0°C 78% 11.0 mph NE17.7 kmh NE 10.1 mph16.3 kmh 30.20 in1022.7 mb - 0.00 in0.0 mm 0.00 in0.0 mm
09:42 AM 25.5°F-3.6°C 19.9°F-6.7°C 79% 8.9 mph E14.3 kmh E 11.0 mph17.7 kmh 30.19 in1022.4 mb - 0.00 in0.0 mm 0.00 in0.0 mm
09:37 AM 25.5°F-3.6°C 19.9°F-6.7°C 79% 8.9 mph E14.3 kmh E 8.1 mph13.0 kmh 30.19 in1022.4 mb - 0.00 in0.0 mm 0.00 in0.0 mm
09:32 AM 25.5°F-3.6°C 19.9°F-6.7°C 79% 8.1 mph NE13.0 kmh NE 12.1 mph19.5 kmh 30.19 in1022.4 mb - 0.00 in0.0 mm 0.00 in0.0 mm
09:27 AM 25.5°F-3.6°C 19.9°F-6.7°C 79% 8.1 mph ESE13.0 kmh ESE 8.1 mph13.0 kmh 30.19 in1022.4 mb - 0.00 in0.0 mm 0.00 in0.0 mm
09:22 AM 25.5°F-3.6°C 19.9°F-6.7°C 79% 8.9 mph E14.3 kmh E 12.1 mph19.5 kmh 30.19 in1022.4 mb - 0.00 in0.0 mm 0.00 in0.0 mm
09:17 AM 25.3°F-3.7°C 19.8°F-6.8°C 79% 8.9 mph E14.3 kmh E 11.0 mph17.7 kmh 30.19 in1022.4 mb - 0.00 in0.0 mm 0.00 in0.0 mm
09:12 AM 25.3°F-3.7°C 19.8°F-6.8°C 79% 10.1 mph NE16.3 kmh NE 14.1 mph22.7 kmh 30.19 in1022.4 mb - 0.00 in0.0 mm 0.00 in0.0 mm
09:07 AM 25.3°F-3.7°C 19.8°F-6.8°C 79% 8.9 mph ENE14.3 kmh ENE 10.1 mph16.3 kmh 30.19 in1022.4 mb - 0.00 in0.0 mm 0.00 in0.0 mm
09:02 AM 25.3°F-3.7°C 19.8°F-6.8°C 79% 10.1 mph ENE16.3 kmh ENE 10.1 mph16.3 kmh 30.20 in1022.7 mb - 0.00 in0.0 mm 0.00 in0.0 mm
08:57 AM 25.3°F-3.7°C 19.8°F-6.8°C 79% 10.1 mph ENE16.3 kmh ENE 8.1 mph13.0 kmh 30.19 in1022.4 mb - 0.00 in0.0 mm 0.00 in0.0 mm
08:52 AM 25.3°F-3.7°C 19.8°F-6.8°C 79% 8.9 mph E14.3 kmh E 12.1 mph19.5 kmh 30.19 in1022.4 mb - 0.00 in0.0 mm 0.00 in0.0 mm
08:47 AM 25.3°F-3.7°C 19.8°F-6.8°C 79% 8.9 mph E14.3 kmh E 8.1 mph13.0 kmh 30.19 in1022.4 mb - 0.00 in0.0 mm 0.00 in0.0 mm
08:42 AM 25.3°F-3.7°C 19.8°F-6.8°C 79% 8.9 mph E14.3 kmh E 6.9 mph11.1 kmh 30.19 in1022.4 mb - 0.00 in0.0 mm 0.00 in0.0 mm
08:37 AM 25.3°F-3.7°C 19.8°F-6.8°C 79% 6.9 mph E11.1 kmh E 10.1 mph16.3 kmh 30.19 in1022.4 mb - 0.00 in0.0 mm 0.00 in0.0 mm
08:32 AM 25.3°F-3.7°C 19.8°F-6.8°C 79% 8.9 mph E14.3 kmh E 6.9 mph11.1 kmh 30.20 in1022.7 mb - 0.00 in0.0 mm 0.00 in0.0 mm
08:27 AM 25.3°F-3.7°C 19.8°F-6.8°C 79% 8.9 mph E14.3 kmh E 8.9 mph14.3 kmh 30.20 in1022.7 mb - 0.00 in0.0 mm 0.00 in0.0 mm
08:22 AM 25.3°F-3.7°C 19.8°F-6.8°C 79% 6.9 mph E11.1 kmh E 15.0 mph24.1 kmh 30.20 in1022.7 mb - 0.00 in0.0 mm 0.00 in0.0 mm
08:17 AM 25.3°F-3.7°C 19.8°F-6.8°C 79% 6.9 mph E11.1 kmh E 10.1 mph16.3 kmh 30.20 in1022.7 mb - 0.00 in0.0 mm 0.00 in0.0 mm
08:12 AM 25.3°F-3.7°C 19.8°F-6.8°C 79% 6.9 mph E11.1 kmh E 8.9 mph14.3 kmh 30.20 in1022.7 mb - 0.00 in0.0 mm 0.00 in0.0 mm
08:07 AM 25.3°F-3.7°C 19.8°F-6.8°C 79% 6.0 mph E9.7 kmh E 4.0 mph6.4 kmh 30.20 in1022.7 mb - 0.00 in0.0 mm 0.00 in0.0 mm
08:02 AM 25.3°F-3.7°C 20.1°F-6.6°C 80% 6.0 mph E9.7 kmh E 6.9 mph11.1 kmh 30.20 in1022.7 mb - 0.00 in0.0 mm 0.00 in0.0 mm
07:57 AM 25.3°F-3.7°C 19.8°F-6.8°C 79% 6.9 mph ENE11.1 kmh ENE 8.9 mph14.3 kmh 30.20 in1022.7 mb - 0.00 in0.0 mm 0.00 in0.0 mm
07:52 AM 25.3°F-3.7°C 19.8°F-6.8°C 79% 6.0 mph E9.7 kmh E 2.9 mph4.7 kmh 30.20 in1022.7 mb - 0.00 in0.0 mm 0.00 in0.0 mm
07:47 AM 25.3°F-3.7°C 19.8°F-6.8°C 79% 4.9 mph E7.9 kmh E 6.9 mph11.1 kmh 30.19 in1022.4 mb - 0.00 in0.0 mm 0.00 in0.0 mm
07:42 AM 25.3°F-3.7°C 19.8°F-6.8°C 79% 6.0 mph E9.7 kmh E 6.0 mph9.7 kmh 30.20 in1022.7 mb - 0.00 in0.0 mm 0.00 in0.0 mm
07:37 AM 25.3°F-3.7°C 19.8°F-6.8°C 79% 6.0 mph E9.7 kmh E 2.9 mph4.7 kmh 30.20 in1022.7 mb - 0.00 in0.0 mm 0.00 in0.0 mm
07:32 AM 25.3°F-3.7°C 19.8°F-6.8°C 79% 6.9 mph ESE11.1 kmh ESE 6.9 mph11.1 kmh 30.19 in1022.4 mb - 0.00 in0.0 mm 0.00 in0.0 mm
07:27 AM 25.3°F-3.7°C 19.8°F-6.8°C 79% 6.9 mph E11.1 kmh E 6.0 mph9.7 kmh 30.19 in1022.4 mb - 0.00 in0.0 mm 0.00 in0.0 mm
07:22 AM 25.3°F-3.7°C 20.1°F-6.6°C 80% 6.9 mph E11.1 kmh E 11.0 mph17.7 kmh 30.19 in1022.4 mb - 0.00 in0.0 mm 0.00 in0.0 mm
07:17 AM 25.3°F-3.7°C 20.1°F-6.6°C 80% 8.1 mph E13.0 kmh E 4.0 mph6.4 kmh 30.19 in1022.4 mb - 0.00 in0.0 mm 0.00 in0.0 mm
07:12 AM 25.3°F-3.7°C 20.1°F-6.6°C 80% 6.9 mph ENE11.1 kmh ENE 8.9 mph14.3 kmh 30.19 in1022.4 mb - 0.00 in0.0 mm 0.00 in0.0 mm
07:07 AM 25.3°F-3.7°C 20.1°F-6.6°C 80% 6.0 mph E9.7 kmh E 6.9 mph11.1 kmh 30.19 in1022.4 mb - 0.00 in0.0 mm 0.00 in0.0 mm
07:02 AM 25.3°F-3.7°C 20.1°F-6.6°C 80% 6.0 mph E9.7 kmh E 6.9 mph11.1 kmh 30.19 in1022.4 mb - 0.00 in0.0 mm 0.00 in0.0 mm
06:52 AM 25.3°F-3.7°C 20.1°F-6.6°C 80% 4.9 mph NE7.9 kmh NE 6.0 mph9.7 kmh 30.19 in1022.4 mb - 0.00 in0.0 mm 0.00 in0.0 mm
06:47 AM 25.5°F-3.6°C 20.3°F-6.5°C 80% 4.9 mph E7.9 kmh E 4.9 mph7.9 kmh 30.19 in1022.4 mb - 0.00 in0.0 mm 0.00 in0.0 mm
06:42 AM 25.5°F-3.6°C 20.3°F-6.5°C 80% 4.9 mph ENE7.9 kmh ENE 8.1 mph13.0 kmh 30.19 in1022.4 mb - 0.00 in0.0 mm 0.00 in0.0 mm
06:37 AM 25.5°F-3.6°C 20.3°F-6.5°C 80% 6.0 mph E9.7 kmh E 6.0 mph9.7 kmh 30.19 in1022.4 mb - 0.00 in0.0 mm 0.00 in0.0 mm
06:32 AM 25.5°F-3.6°C 20.3°F-6.5°C 80% 6.0 mph E9.7 kmh E 4.0 mph6.4 kmh 30.19 in1022.4 mb - 0.00 in0.0 mm 0.00 in0.0 mm
06:27 AM 25.5°F-3.6°C 20.3°F-6.5°C 80% 6.0 mph ENE9.7 kmh ENE 6.0 mph9.7 kmh 30.19 in1022.4 mb - 0.00 in0.0 mm 0.00 in0.0 mm
06:22 AM 25.5°F-3.6°C 20.5°F-6.4°C 81% 6.0 mph E9.7 kmh E 6.0 mph9.7 kmh 30.19 in1022.4 mb - 0.00 in0.0 mm 0.00 in0.0 mm
06:17 AM 25.5°F-3.6°C 20.5°F-6.4°C 81% 6.9 mph ESE11.1 kmh ESE 10.1 mph16.3 kmh 30.19 in1022.4 mb - 0.00 in0.0 mm 0.00 in0.0 mm
06:12 AM 25.5°F-3.6°C 20.5°F-6.4°C 81% 6.9 mph E11.1 kmh E 2.9 mph4.7 kmh 30.19 in1022.4 mb - 0.00 in0.0 mm 0.00 in0.0 mm
06:07 AM 25.5°F-3.6°C 20.8°F-6.2°C 82% 6.0 mph E9.7 kmh E 6.9 mph11.1 kmh 30.19 in1022.4 mb - 0.00 in0.0 mm 0.00 in0.0 mm
06:02 AM 25.5°F-3.6°C 20.8°F-6.2°C 82% 6.0 mph E9.7 kmh E 4.9 mph7.9 kmh 30.19 in1022.4 mb - 0.00 in0.0 mm 0.00 in0.0 mm
05:57 AM 25.5°F-3.6°C 20.8°F-6.2°C 82% 6.0 mph E9.7 kmh E 6.9 mph11.1 kmh 30.18 in1022.0 mb - 0.00 in0.0 mm 0.00 in0.0 mm
05:52 AM 25.5°F-3.6°C 20.8°F-6.2°C 82% 6.0 mph E9.7 kmh E 6.9 mph11.1 kmh 30.18 in1022.0 mb - 0.00 in0.0 mm 0.00 in0.0 mm
05:47 AM 25.5°F-3.6°C 20.8°F-6.2°C 82% 6.9 mph E11.1 kmh E 8.1 mph13.0 kmh 30.19 in1022.4 mb - 0.00 in0.0 mm 0.00 in0.0 mm
05:42 AM 25.5°F-3.6°C 20.8°F-6.2°C 82% 6.9 mph E11.1 kmh E 6.9 mph11.1 kmh 30.19 in1022.4 mb - 0.00 in0.0 mm 0.00 in0.0 mm
05:37 AM 25.5°F-3.6°C 20.8°F-6.2°C 82% 6.9 mph E11.1 kmh E 6.9 mph11.1 kmh 30.19 in1022.4 mb - 0.00 in0.0 mm 0.00 in0.0 mm
05:32 AM 25.5°F-3.6°C 20.8°F-6.2°C 82% 6.0 mph E9.7 kmh E 6.9 mph11.1 kmh 30.18 in1022.0 mb - 0.00 in0.0 mm 0.00 in0.0 mm
05:27 AM 25.7°F-3.5°C 21.0°F-6.1°C 82% 6.0 mph E9.7 kmh E 6.0 mph9.7 kmh 30.18 in1022.0 mb - 0.00 in0.0 mm 0.00 in0.0 mm
05:22 AM 25.7°F-3.5°C 21.0°F-6.1°C 82% 8.1 mph E13.0 kmh E 0.9 mph1.4 kmh 30.18 in1022.0 mb - 0.00 in0.0 mm 0.00 in0.0 mm
05:17 AM 25.7°F-3.5°C 21.0°F-6.1°C 82% 8.1 mph E13.0 kmh E 2.9 mph4.7 kmh 30.18 in1022.0 mb - 0.00 in0.0 mm 0.00 in0.0 mm
05:12 AM 25.7°F-3.5°C 21.0°F-6.1°C 82% 6.9 mph E11.1 kmh E 8.9 mph14.3 kmh 30.17 in1021.7 mb - 0.00 in0.0 mm 0.00 in0.0 mm
05:07 AM 25.7°F-3.5°C 21.0°F-6.1°C 82% 6.9 mph ESE11.1 kmh ESE 6.0 mph9.7 kmh 30.17 in1021.7 mb - 0.00 in0.0 mm 0.00 in0.0 mm
05:02 AM 25.7°F-3.5°C 21.0°F-6.1°C 82% 6.9 mph E11.1 kmh E 8.1 mph13.0 kmh 30.17 in1021.7 mb - 0.00 in0.0 mm 0.00 in0.0 mm
04:57 AM 25.7°F-3.5°C 21.0°F-6.1°C 82% 6.9 mph E11.1 kmh E 8.1 mph13.0 kmh 30.17 in1021.7 mb - 0.00 in0.0 mm 0.00 in0.0 mm
04:52 AM 25.7°F-3.5°C 21.0°F-6.1°C 82% 8.1 mph ENE13.0 kmh ENE 10.1 mph16.3 kmh 30.17 in1021.7 mb - 0.00 in0.0 mm 0.00 in0.0 mm
04:47 AM 25.7°F-3.5°C 21.0°F-6.1°C 82% 8.1 mph E13.0 kmh E 6.9 mph11.1 kmh 30.17 in1021.7 mb - 0.00 in0.0 mm 0.00 in0.0 mm
04:42 AM 25.7°F-3.5°C 21.0°F-6.1°C 82% 8.1 mph E13.0 kmh E 8.9 mph14.3 kmh 30.16 in1021.3 mb - 0.00 in0.0 mm 0.00 in0.0 mm
04:37 AM 25.9°F-3.4°C 21.2°F-6.0°C 82% 8.1 mph E13.0 kmh E 4.9 mph7.9 kmh 30.16 in1021.3 mb - 0.00 in0.0 mm 0.00 in0.0 mm
04:32 AM 25.9°F-3.4°C 21.2°F-6.0°C 82% 8.1 mph E13.0 kmh E 8.9 mph14.3 kmh 30.16 in1021.3 mb - 0.00 in0.0 mm 0.00 in0.0 mm
04:27 AM 25.9°F-3.4°C 21.2°F-6.0°C 82% 6.9 mph E11.1 kmh E 4.9 mph7.9 kmh 30.16 in1021.3 mb - 0.00 in0.0 mm 0.00 in0.0 mm
04:22 AM 25.9°F-3.4°C 21.2°F-6.0°C 82% 6.9 mph E11.1 kmh E 8.1 mph13.0 kmh 30.16 in1021.3 mb - 0.00 in0.0 mm 0.00 in0.0 mm
04:17 AM 25.9°F-3.4°C 21.2°F-6.0°C 82% 6.9 mph E11.1 kmh E 2.9 mph4.7 kmh 30.16 in1021.3 mb - 0.00 in0.0 mm 0.00 in0.0 mm
04:12 AM 25.9°F-3.4°C 21.2°F-6.0°C 82% 6.9 mph E11.1 kmh E 2.0 mph3.2 kmh 30.16 in1021.3 mb - 0.00 in0.0 mm 0.00 in0.0 mm
04:07 AM 25.7°F-3.5°C 21.0°F-6.1°C 82% 8.1 mph ENE13.0 kmh ENE 6.0 mph9.7 kmh 30.16 in1021.3 mb - 0.00 in0.0 mm 0.00 in0.0 mm
04:02 AM 25.7°F-3.5°C 21.0°F-6.1°C 82% 8.1 mph E13.0 kmh E 6.0 mph9.7 kmh 30.16 in1021.3 mb - 0.00 in0.0 mm 0.00 in0.0 mm
03:57 AM 25.7°F-3.5°C 21.0°F-6.1°C 82% 8.1 mph E13.0 kmh E 6.0 mph9.7 kmh 30.16 in1021.3 mb - 0.00 in0.0 mm 0.00 in0.0 mm
03:52 AM 25.7°F-3.5°C 21.0°F-6.1°C 82% 8.1 mph E13.0 kmh E 8.1 mph13.0 kmh 30.16 in1021.3 mb - 0.00 in0.0 mm 0.00 in0.0 mm
03:47 AM 25.7°F-3.5°C 21.0°F-6.1°C 82% 8.1 mph E13.0 kmh E 8.9 mph14.3 kmh 30.16 in1021.3 mb - 0.00 in0.0 mm 0.00 in0.0 mm
03:42 AM 25.7°F-3.5°C 20.7°F-6.3°C 81% 8.1 mph NE13.0 kmh NE 4.0 mph6.4 kmh 30.16 in1021.3 mb - 0.00 in0.0 mm 0.00 in0.0 mm
03:37 AM 25.9°F-3.4°C 20.8°F-6.2°C 81% 8.1 mph E13.0 kmh E 10.1 mph16.3 kmh 30.16 in1021.3 mb - 0.00 in0.0 mm 0.00 in0.0 mm
03:32 AM 25.9°F-3.4°C 20.8°F-6.2°C 81% 8.1 mph NE13.0 kmh NE 8.9 mph14.3 kmh 30.16 in1021.3 mb - 0.00 in0.0 mm 0.00 in0.0 mm
03:27 AM 25.9°F-3.4°C 20.8°F-6.2°C 81% 6.9 mph ENE11.1 kmh ENE 12.1 mph19.5 kmh 30.17 in1021.7 mb - 0.00 in0.0 mm 0.00 in0.0 mm
03:22 AM 25.9°F-3.4°C 20.5°F-6.4°C 80% 6.9 mph E11.1 kmh E 8.1 mph13.0 kmh 30.16 in1021.3 mb - 0.00 in0.0 mm 0.00 in0.0 mm
03:17 AM 25.9°F-3.4°C 20.8°F-6.2°C 81% 4.9 mph ENE7.9 kmh ENE 8.9 mph14.3 kmh 30.17 in1021.7 mb - 0.00 in0.0 mm 0.00 in0.0 mm
03:12 AM 25.9°F-3.4°C 20.8°F-6.2°C 81% 4.9 mph NE7.9 kmh NE 4.9 mph7.9 kmh 30.17 in1021.7 mb - 0.00 in0.0 mm 0.00 in0.0 mm
03:07 AM 25.9°F-3.4°C 20.8°F-6.2°C 81% 6.9 mph NE11.1 kmh NE 6.0 mph9.7 kmh 30.17 in1021.7 mb - 0.00 in0.0 mm 0.00 in0.0 mm
03:02 AM 25.9°F-3.4°C 20.8°F-6.2°C 81% 6.9 mph ENE11.1 kmh ENE 4.0 mph6.4 kmh 30.17 in1021.7 mb - 0.00 in0.0 mm 0.00 in0.0 mm
02:57 AM 25.9°F-3.4°C 20.8°F-6.2°C 81% 6.9 mph E11.1 kmh E 8.9 mph14.3 kmh 30.17 in1021.7 mb - 0.00 in0.0 mm 0.00 in0.0 mm
02:52 AM 25.9°F-3.4°C 20.8°F-6.2°C 81% 6.0 mph E9.7 kmh E 6.9 mph11.1 kmh 30.18 in1022.0 mb - 0.00 in0.0 mm 0.00 in0.0 mm
02:47 AM 25.9°F-3.4°C 20.8°F-6.2°C 81% 6.0 mph ENE9.7 kmh ENE 8.1 mph13.0 kmh 30.18 in1022.0 mb - 0.00 in0.0 mm 0.00 in0.0 mm
02:42 AM 25.9°F-3.4°C 20.8°F-6.2°C 81% 6.0 mph E9.7 kmh E 4.0 mph6.4 kmh 30.18 in1022.0 mb - 0.00 in0.0 mm 0.00 in0.0 mm
02:37 AM 25.9°F-3.4°C 20.8°F-6.2°C 81% 6.0 mph ENE9.7 kmh ENE 8.1 mph13.0 kmh 30.18 in1022.0 mb - 0.00 in0.0 mm 0.00 in0.0 mm
02:32 AM 25.9°F-3.4°C 20.8°F-6.2°C 81% 6.0 mph ESE9.7 kmh ESE 4.0 mph6.4 kmh 30.18 in1022.0 mb - 0.00 in0.0 mm 0.00 in0.0 mm
02:27 AM 25.9°F-3.4°C 20.8°F-6.2°C 81% 6.9 mph ENE11.1 kmh ENE 4.9 mph7.9 kmh 30.17 in1021.7 mb - 0.00 in0.0 mm 0.00 in0.0 mm
02:22 AM 25.9°F-3.4°C 20.8°F-6.2°C 81% 6.9 mph ENE11.1 kmh ENE 4.0 mph6.4 kmh 30.18 in1022.0 mb - 0.00 in0.0 mm 0.00 in0.0 mm
02:17 AM 25.9°F-3.4°C 20.8°F-6.2°C 81% 6.9 mph ENE11.1 kmh ENE 6.0 mph9.7 kmh 30.18 in1022.0 mb - 0.00 in0.0 mm 0.00 in0.0 mm
02:12 AM 25.9°F-3.4°C 20.8°F-6.2°C 81% 6.9 mph ENE11.1 kmh ENE 4.9 mph7.9 kmh 30.18 in1022.0 mb - 0.00 in0.0 mm 0.00 in0.0 mm
02:07 AM 25.9°F-3.4°C 20.8°F-6.2°C 81% 6.9 mph ENE11.1 kmh ENE 8.9 mph14.3 kmh 30.18 in1022.0 mb - 0.00 in0.0 mm 0.00 in0.0 mm
02:02 AM 25.9°F-3.4°C 20.8°F-6.2°C 81% 6.0 mph ENE9.7 kmh ENE 8.1 mph13.0 kmh 30.18 in1022.0 mb - 0.00 in0.0 mm 0.00 in0.0 mm
01:57 AM 25.9°F-3.4°C 20.8°F-6.2°C 81% 6.9 mph NE11.1 kmh NE 6.9 mph11.1 kmh 30.18 in1022.0 mb - 0.00 in0.0 mm 0.00 in0.0 mm
01:52 AM 25.9°F-3.4°C 20.8°F-6.2°C 81% 6.9 mph E11.1 kmh E 4.9 mph7.9 kmh 30.18 in1022.0 mb - 0.00 in0.0 mm 0.00 in0.0 mm
01:47 AM 25.9°F-3.4°C 20.8°F-6.2°C 81% 6.0 mph E9.7 kmh E 8.1 mph13.0 kmh 30.18 in1022.0 mb - 0.00 in0.0 mm 0.00 in0.0 mm
01:42 AM 25.9°F-3.4°C 20.8°F-6.2°C 81% 6.0 mph ENE9.7 kmh ENE 4.0 mph6.4 kmh 30.18 in1022.0 mb - 0.00 in0.0 mm 0.00 in0.0 mm
01:37 AM 26.1°F-3.3°C 20.7°F-6.3°C 80% 6.9 mph ENE11.1 kmh ENE 10.1 mph16.3 kmh 30.18 in1022.0 mb - 0.00 in0.0 mm 0.00 in0.0 mm
01:32 AM 26.1°F-3.3°C 20.7°F-6.3°C 80% 6.0 mph ENE9.7 kmh ENE 2.9 mph4.7 kmh 30.18 in1022.0 mb - 0.00 in0.0 mm 0.00 in0.0 mm
01:27 AM 26.1°F-3.3°C 20.7°F-6.3°C 80% 4.9 mph E7.9 kmh E 6.9 mph11.1 kmh 30.18 in1022.0 mb - 0.00 in0.0 mm 0.00 in0.0 mm
01:22 AM 26.1°F-3.3°C 20.7°F-6.3°C 80% 4.9 mph E7.9 kmh E 4.0 mph6.4 kmh 30.18 in1022.0 mb - 0.00 in0.0 mm 0.00 in0.0 mm
01:17 AM 26.1°F-3.3°C 20.7°F-6.3°C 80% 6.0 mph ENE9.7 kmh ENE 2.9 mph4.7 kmh 30.18 in1022.0 mb - 0.00 in0.0 mm 0.00 in0.0 mm
01:12 AM 26.1°F-3.3°C 20.7°F-6.3°C 80% 6.0 mph ENE9.7 kmh ENE 8.9 mph14.3 kmh 30.18 in1022.0 mb - 0.00 in0.0 mm 0.00 in0.0 mm
01:07 AM 26.1°F-3.3°C 20.7°F-6.3°C 80% 6.9 mph E11.1 kmh E 4.0 mph6.4 kmh 30.18 in1022.0 mb - 0.00 in0.0 mm 0.00 in0.0 mm
01:02 AM 26.1°F-3.3°C 20.7°F-6.3°C 80% 6.9 mph E11.1 kmh E 4.0 mph6.4 kmh 30.17 in1021.7 mb - 0.00 in0.0 mm 0.00 in0.0 mm
12:57 AM 26.1°F-3.3°C 20.7°F-6.3°C 80% 6.9 mph E11.1 kmh E 11.0 mph17.7 kmh 30.17 in1021.7 mb - 0.00 in0.0 mm 0.00 in0.0 mm
12:52 AM 26.1°F-3.3°C 20.7°F-6.3°C 80% 6.9 mph E11.1 kmh E 2.9 mph4.7 kmh 30.17 in1021.7 mb - 0.00 in0.0 mm 0.00 in0.0 mm
12:47 AM 26.1°F-3.3°C 20.7°F-6.3°C 80% 6.0 mph E9.7 kmh E 8.1 mph13.0 kmh 30.17 in1021.7 mb - 0.00 in0.0 mm 0.00 in0.0 mm
12:42 AM 26.1°F-3.3°C 20.7°F-6.3°C 80% 6.0 mph E9.7 kmh E 4.0 mph6.4 kmh 30.17 in1021.7 mb - 0.00 in0.0 mm 0.00 in0.0 mm
12:37 AM 26.1°F-3.3°C 20.7°F-6.3°C 80% 6.9 mph E11.1 kmh E 6.0 mph9.7 kmh 30.17 in1021.7 mb - 0.00 in0.0 mm 0.00 in0.0 mm
12:32 AM 26.1°F-3.3°C 20.7°F-6.3°C 80% 6.9 mph E11.1 kmh E 4.9 mph7.9 kmh 30.17 in1021.7 mb - 0.00 in0.0 mm 0.00 in0.0 mm
12:27 AM 26.1°F-3.3°C 20.7°F-6.3°C 80% 6.0 mph ENE9.7 kmh ENE 2.9 mph4.7 kmh 30.17 in1021.7 mb - 0.00 in0.0 mm 0.00 in0.0 mm
12:22 AM 26.1°F-3.3°C 20.7°F-6.3°C 80% 6.0 mph E9.7 kmh E 8.1 mph13.0 kmh 30.17 in1021.7 mb - 0.00 in0.0 mm 0.00 in0.0 mm
12:17 AM 26.1°F-3.3°C 20.7°F-6.3°C 80% 6.9 mph E11.1 kmh E 8.9 mph14.3 kmh 30.16 in1021.3 mb - 0.00 in0.0 mm 0.00 in0.0 mm
12:12 AM 26.1°F-3.3°C 20.7°F-6.3°C 80% 8.1 mph E13.0 kmh E 6.0 mph9.7 kmh 30.16 in1021.3 mb - 0.00 in0.0 mm 0.00 in0.0 mm
12:07 AM 26.1°F-3.3°C 20.7°F-6.3°C 80% 6.0 mph ENE9.7 kmh ENE 12.1 mph19.5 kmh 30.16 in1021.3 mb - 0.00 in0.0 mm 0.00 in0.0 mm
12:02 AM 26.1°F-3.3°C 20.7°F-6.3°C 80% 6.0 mph ENE9.7 kmh ENE 8.9 mph14.3 kmh 30.16 in1021.3 mb - 0.00 in0.0 mm 0.00 in0.0 mm